Time;durP1;ratioP1;P1;durP2;ratioP2;P2;SDS_P1;SDS_P2;PMS_P1;PMS_P2;Temp;Humidity;BMP_temperature;BMP_pressure;BME280_temperature;BME280_humidity;BME280_pressure;Samples;Min_cycle;Max_cycle;Signal;HPM_P1;HPM_P2
2023/02/25 00:00:49;;;;;;;10.43;6.80;;;5.60;1.00;;;;;;5017961;28;20546;-53
2023/02/25 00:03:18;;;;;;;9.20;6.60;;;5.60;1.00;;;;;;5025265;28;20960;-54
2023/02/25 00:05:43;;;;;;;7.37;6.50;;;5.50;1.00;;;;;;5023806;28;20214;-53
2023/02/25 00:08:09;;;;;;;8.57;6.10;;;5.50;1.00;;;;;;5041071;28;20459;-53
2023/02/25 00:10:35;;;;;;;8.73;5.50;;;5.40;1.00;;;;;;5042154;28;20193;-55
2023/02/25 00:13:04;;;;;;;8.33;6.13;;;5.40;1.00;;;;;;5042620;28;20902;-55
2023/02/25 00:15:30;;;;;;;9.70;6.30;;;5.30;1.00;;;;;;5041987;28;20215;-53
2023/02/25 00:17:55;;;;;;;8.50;6.60;;;5.30;1.00;;;;;;5043586;28;20458;-55
2023/02/25 00:20:21;;;;;;;8.07;4.93;;;5.30;1.00;;;;;;5047980;28;20180;-54
2023/02/25 00:22:49;;;;;;;7.83;6.10;;;5.40;1.00;;;;;;5057904;28;20192;-56
2023/02/25 00:25:17;;;;;;;9.20;6.97;;;5.30;1.00;;;;;;5059063;28;20282;-54
2023/02/25 00:27:43;;;;;;;7.70;6.23;;;5.30;1.00;;;;;;5052343;28;20460;-55
2023/02/25 00:30:10;;;;;;;7.77;6.70;;;5.40;1.00;;;;;;5044867;28;20454;-54
2023/02/25 00:32:36;;;;;;;7.57;5.73;;;5.40;1.00;;;;;;5048798;28;20465;-54
2023/02/25 00:35:03;;;;;;;8.93;5.90;;;5.50;1.00;;;;;;5042932;28;20467;-56
2023/02/25 00:37:29;;;;;;;8.13;6.97;;;5.60;1.00;;;;;;5045743;28;20992;-54
2023/02/25 00:39:54;;;;;;;8.63;6.33;;;5.60;1.00;;;;;;5054676;28;20450;-54
2023/02/25 00:42:20;;;;;;;10.80;8.03;;;5.40;1.00;;;;;;5043869;28;20478;-55
2023/02/25 00:44:47;;;;;;;9.20;7.37;;;5.40;1.00;;;;;;5041396;28;20347;-54
2023/02/25 00:47:14;;;;;;;11.13;7.67;;;5.40;1.00;;;;;;5042745;28;20224;-54
2023/02/25 00:49:40;;;;;;;13.13;6.97;;;5.50;1.00;;;;;;5048768;28;20868;-55
2023/02/25 00:52:08;;;;;;;9.93;7.20;;;5.50;1.00;;;;;;5057387;28;20975;-56
2023/02/25 00:54:34;;;;;;;9.30;7.13;;;5.40;1.00;;;;;;5052211;28;20477;-53
2023/02/25 00:56:59;;;;;;;12.90;7.07;;;5.50;1.00;;;;;;5044408;28;20535;-54
2023/02/25 00:59:25;;;;;;;9.83;7.97;;;5.50;1.00;;;;;;5044957;28;20447;-54
2023/02/25 01:01:51;;;;;;;11.33;7.67;;;5.40;1.00;;;;;;5041102;28;20185;-54
2023/02/25 01:04:17;;;;;;;10.20;8.10;;;5.50;1.00;;;;;;5057262;28;20188;-53
2023/02/25 01:06:43;;;;;;;8.97;7.70;;;5.60;1.00;;;;;;5047664;28;20442;-53
2023/02/25 01:09:15;;;;;;;10.50;7.37;;;5.60;1.00;;;;;;5046454;28;20242;-54
2023/02/25 01:11:44;;;;;;;9.90;7.03;;;5.70;1.00;;;;;;5042843;28;20458;-54
2023/02/25 01:14:15;;;;;;;12.40;6.97;;;5.70;1.00;;;;;;5039999;28;20582;-53
2023/02/25 01:16:42;;;;;;;13.77;8.30;;;5.80;1.00;;;;;;5041855;28;20478;-52
2023/02/25 01:19:13;;;;;;;12.07;8.63;;;5.50;1.00;;;;;;5044938;28;20453;-55
2023/02/25 01:21:41;;;;;;;11.77;7.93;;;5.50;1.00;;;;;;5050365;28;20449;-55
2023/02/25 01:24:12;;;;;;;12.20;7.50;;;5.80;1.00;;;;;;5040941;28;20455;-54
2023/02/25 01:26:41;;;;;;;9.60;6.33;;;5.70;1.00;;;;;;5046197;28;20588;-54
2023/02/25 01:29:12;;;;;;;7.70;5.40;;;5.80;1.00;;;;;;5047405;28;20461;-54
2023/02/25 01:31:38;;;;;;;9.87;7.07;;;5.80;1.00;;;;;;5043047;28;20466;-54
2023/02/25 01:34:06;;;;;;;8.40;6.03;;;5.90;1.00;;;;;;5048362;28;20460;-55
2023/02/25 01:36:33;;;;;;;8.50;5.77;;;5.90;1.00;;;;;;5040588;28;20216;-53
2023/02/25 01:39:00;;;;;;;9.73;6.47;;;6.00;1.00;;;;;;5055200;28;20492;-53
2023/02/25 01:41:28;;;;;;;12.63;7.10;;;6.00;1.00;;;;;;5058053;28;20481;-54
2023/02/25 01:44:01;;;;;;;7.70;5.10;;;6.00;1.00;;;;;;5041953;28;20451;-53
2023/02/25 01:46:28;;;;;;;7.30;5.03;;;6.00;1.00;;;;;;5041585;28;20450;-53
2023/02/25 01:48:55;;;;;;;10.30;7.00;;;6.00;1.00;;;;;;5045770;28;20473;-55
2023/02/25 01:51:24;;;;;;;10.10;5.60;;;6.00;1.00;;;;;;5047704;28;20447;-53
2023/02/25 01:53:50;;;;;;;6.30;4.43;;;5.80;1.00;;;;;;5044246;28;20485;-53
2023/02/25 01:56:19;;;;;;;8.23;5.57;;;5.60;1.00;;;;;;5045780;28;20467;-55
2023/02/25 01:58:47;;;;;;;10.37;5.53;;;5.50;1.00;;;;;;5045462;28;20692;-54
2023/02/25 02:01:17;;;;;;;9.10;6.13;;;5.50;1.00;;;;;;5053618;28;20439;-54
2023/02/25 02:03:43;;;;;;;9.33;5.73;;;5.50;1.00;;;;;;5048129;28;20754;-53
2023/02/25 02:06:16;;;;;;;6.23;4.73;;;5.60;1.00;;;;;;5039538;28;20450;-52
2023/02/25 02:08:44;;;;;;;8.03;4.67;;;5.50;1.00;;;;;;5037213;28;20525;-53
2023/02/25 02:11:10;;;;;;;6.70;4.87;;;5.50;1.00;;;;;;5040337;28;20460;-54
2023/02/25 02:13:41;;;;;;;12.03;4.80;;;5.60;1.00;;;;;;5053560;28;21097;-54
2023/02/25 02:16:25;;;;;;;7.93;4.60;;;5.70;1.00;;;;;;5042522;28;20743;-54
2023/02/25 02:18:57;;;;;;;9.70;4.57;;;5.60;1.00;;;;;;5049832;28;20442;-55
2023/02/25 02:21:34;;;;;;;7.23;4.30;;;5.60;1.00;;;;;;5043818;28;20443;-55
2023/02/25 02:24:18;;;;;;;9.93;4.60;;;5.70;1.00;;;;;;5040066;28;21090;-54
2023/02/25 02:26:50;;;;;;;7.60;3.60;;;5.70;1.00;;;;;;5040015;28;20450;-53
2023/02/25 02:29:16;;;;;;;5.97;3.70;;;5.70;1.00;;;;;;5046483;28;20517;-53
2023/02/25 02:32:09;;;;;;;7.63;3.60;;;5.60;1.00;;;;;;5039495;28;20451;-53
2023/02/25 02:34:59;;;;;;;7.03;3.60;;;5.80;1.00;;;;;;5053854;28;20207;-53
2023/02/25 02:38:20;;;;;;;6.33;4.17;;;5.80;1.00;;;;;;5041733;28;20940;-54
2023/02/25 02:41:05;;;;;;;7.27;3.73;;;5.60;1.00;;;;;;5020764;28;20452;-54
2023/02/25 02:44:06;;;;;;;6.47;2.90;;;5.60;1.00;;;;;;5047888;28;20941;-54
2023/02/25 02:46:56;;;;;;;6.67;3.20;;;5.70;1.00;;;;;;5042427;28;20446;-56
2023/02/25 02:50:03;;;;;;;7.10;3.83;;;5.70;1.00;;;;;;5032001;28;20451;-53
2023/02/25 02:52:32;;;;;;;6.63;3.20;;;5.60;1.00;;;;;;5029990;28;21222;-54
2023/02/25 02:55:22;;;;;;;8.57;3.30;;;5.70;1.00;;;;;;5042591;28;21012;-53
2023/02/25 02:57:52;;;;;;;6.27;2.70;;;5.80;1.00;;;;;;5041576;28;20501;-55
2023/02/25 03:00:25;;;;;;;5.20;2.63;;;5.80;1.00;;;;;;5045837;28;20534;-54
2023/02/25 03:03:17;;;;;;;12.67;3.33;;;5.70;1.00;;;;;;5043528;28;20499;-54
2023/02/25 03:05:46;;;;;;;6.30;2.73;;;5.50;1.00;;;;;;5042963;28;20462;-55
2023/02/25 03:08:27;;;;;;;5.10;2.80;;;5.50;1.00;;;;;;5043746;28;20534;-54
2023/02/25 03:10:53;;;;;;;5.37;2.80;;;5.50;1.00;;;;;;5050386;28;20442;-53
2023/02/25 03:13:18;;;;;;;6.83;2.97;;;5.50;1.00;;;;;;5042543;28;20451;-53
2023/02/25 03:15:45;;;;;;;9.30;2.57;;;5.50;1.00;;;;;;5041636;28;20204;-53
2023/02/25 03:18:21;;;;;;;8.27;2.80;;;5.60;1.00;;;;;;5040023;28;20192;-52
2023/02/25 03:20:49;;;;;;;5.17;2.70;;;5.50;1.00;;;;;;5043448;28;20462;-54
2023/02/25 03:23:23;;;;;;;4.90;2.50;;;5.50;1.00;;;;;;5050231;28;20443;-53
2023/02/25 03:25:59;;;;;;;6.50;2.73;;;5.40;1.00;;;;;;5037291;28;20451;-53
2023/02/25 03:28:31;;;;;;;4.60;2.47;;;5.30;1.00;;;;;;5039162;28;21041;-54
2023/02/25 03:31:39;;;;;;;8.67;2.17;;;5.30;1.00;;;;;;5045771;28;20447;-54
2023/02/25 03:34:14;;;;;;;4.77;2.13;;;5.20;1.00;;;;;;4973747;28;20449;-53
2023/02/25 03:36:44;;;;;;;6.23;1.97;;;5.10;1.00;;;;;;5045316;28;20482;-54
2023/02/25 03:39:15;;;;;;;4.67;1.93;;;5.30;1.00;;;;;;5048104;28;20435;-54
2023/02/25 03:41:45;;;;;;;5.77;2.10;;;5.20;1.00;;;;;;5049558;28;20478;-54
2023/02/25 03:44:14;;;;;;;4.10;2.40;;;5.10;1.00;;;;;;5046690;28;20439;-54
2023/02/25 03:46:42;;;;;;;5.57;2.60;;;5.10;1.00;;;;;;5049975;28;20497;-55
2023/02/25 03:49:11;;;;;;;7.20;2.67;;;5.10;1.00;;;;;;5041907;28;20445;-54
2023/02/25 03:51:40;;;;;;;3.97;2.40;;;5.00;1.00;;;;;;5052539;28;20490;-55
2023/02/25 03:54:06;;;;;;;4.40;2.60;;;5.00;1.00;;;;;;5048813;28;20480;-54
2023/02/25 03:56:43;;;;;;;3.67;1.90;;;5.10;1.00;;;;;;5044643;28;20523;-54
2023/02/25 03:59:09;;;;;;;4.60;2.43;;;5.00;1.00;;;;;;5047586;28;20434;-53
2023/02/25 04:01:37;;;;;;;8.93;2.63;;;4.90;1.00;;;;;;5048986;28;21485;-54
2023/02/25 04:04:03;;;;;;;6.53;2.40;;;5.00;1.00;;;;;;5044681;28;20203;-55
2023/02/25 04:06:29;;;;;;;4.37;2.50;;;5.00;1.00;;;;;;5046021;28;20804;-54
2023/02/25 04:08:55;;;;;;;4.60;2.43;;;5.10;1.00;;;;;;5045481;28;20700;-54
2023/02/25 04:11:21;;;;;;;5.70;2.27;;;5.00;1.00;;;;;;5051586;28;20191;-53
2023/02/25 04:13:46;;;;;;;8.53;2.00;;;5.00;1.00;;;;;;5061108;28;20457;-54
2023/02/25 04:16:13;;;;;;;4.93;2.50;;;5.00;1.00;;;;;;5040631;28;20639;-56
2023/02/25 04:18:39;;;;;;;10.03;2.77;;;4.90;1.00;;;;;;5050406;28;20207;-54
2023/02/25 04:21:06;;;;;;;4.97;2.10;;;4.80;1.00;;;;;;5047578;28;20902;-53
2023/02/25 04:23:32;;;;;;;9.43;3.20;;;4.90;1.00;;;;;;5048489;28;20541;-53
2023/02/25 04:25:58;;;;;;;5.20;2.57;;;4.90;1.00;;;;;;5052541;28;20450;-54
2023/02/25 04:28:23;;;;;;;6.23;1.87;;;4.90;1.00;;;;;;5049489;28;20450;-54
2023/02/25 04:30:49;;;;;;;7.10;2.37;;;4.90;1.00;;;;;;5059574;28;20280;-53
2023/02/25 04:33:14;;;;;;;3.20;2.10;;;4.80;1.00;;;;;;5046529;28;20194;-55
2023/02/25 04:35:40;;;;;;;2.80;1.63;;;4.70;1.00;;;;;;5047105;28;20316;-53
2023/02/25 04:38:06;;;;;;;4.10;2.93;;;4.50;1.00;;;;;;5054027;28;20203;-55
2023/02/25 04:40:32;;;;;;;3.47;2.10;;;4.30;1.00;;;;;;5049027;28;20176;-55
2023/02/25 04:42:57;;;;;;;2.30;1.67;;;4.30;1.00;;;;;;5051393;28;20454;-54
2023/02/25 04:45:24;;;;;;;1.90;1.40;;;4.20;1.00;;;;;;5045304;28;20405;-53
2023/02/25 04:47:52;;;;;;;5.03;2.33;;;4.20;1.00;;;;;;5045788;28;20607;-55
2023/02/25 04:50:17;;;;;;;4.40;1.60;;;4.10;1.00;;;;;;5042779;28;20972;-54
2023/02/25 04:52:43;;;;;;;3.00;1.80;;;4.10;1.00;;;;;;5050198;28;20513;-52
2023/02/25 04:55:09;;;;;;;4.03;1.70;;;4.10;1.00;;;;;;5044699;28;20712;-55
2023/02/25 04:57:41;;;;;;;2.60;1.60;;;4.00;1.00;;;;;;5053717;28;20191;-53
2023/02/25 05:00:14;;;;;;;2.37;1.83;;;4.00;1.00;;;;;;5037141;28;20541;-55
2023/02/25 05:02:39;;;;;;;2.53;1.90;;;4.00;1.00;;;;;;5047156;28;21009;-55
2023/02/25 05:05:05;;;;;;;2.03;1.43;;;4.00;1.00;;;;;;5049119;28;20447;-52
2023/02/25 05:07:31;;;;;;;2.50;1.63;;;4.00;1.00;;;;;;5044874;28;20193;-53
2023/02/25 05:09:57;;;;;;;2.03;1.87;;;4.00;1.00;;;;;;5042755;28;20467;-55
2023/02/25 05:12:22;;;;;;;2.07;1.90;;;4.00;1.00;;;;;;5038916;28;20192;-54
2023/02/25 05:14:48;;;;;;;4.80;1.90;;;4.00;1.00;;;;;;5039724;28;20216;-53
2023/02/25 05:17:14;;;;;;;3.30;2.17;;;4.00;1.00;;;;;;5040961;28;20559;-52
2023/02/25 05:19:40;;;;;;;3.83;2.30;;;4.10;1.00;;;;;;5040918;28;20619;-54
2023/02/25 05:22:07;;;;;;;2.13;1.80;;;3.90;1.00;;;;;;5049045;28;20538;-54
2023/02/25 05:24:33;;;;;;;2.30;2.10;;;4.00;1.00;;;;;;5051192;28;20461;-55
2023/02/25 05:27:03;;;;;;;2.80;2.50;;;4.00;1.00;;;;;;5062860;28;20446;-52
2023/02/25 05:29:29;;;;;;;2.70;2.50;;;4.00;1.00;;;;;;5049611;28;20450;-53
2023/02/25 05:31:54;;;;;;;2.23;2.03;;;4.00;1.00;;;;;;5043547;28;20836;-54
2023/02/25 05:34:21;;;;;;;2.80;1.80;;;3.90;1.00;;;;;;5050361;28;20206;-55
2023/02/25 05:36:47;;;;;;;3.30;1.80;;;3.90;1.00;;;;;;5064981;28;20227;-54
2023/02/25 05:39:13;;;;;;;2.13;1.93;;;3.70;1.00;;;;;;5051028;28;20445;-54
2023/02/25 05:41:39;;;;;;;1.73;1.63;;;3.70;1.00;;;;;;5059344;28;20202;-52
2023/02/25 05:44:06;;;;;;;1.93;1.70;;;3.70;1.00;;;;;;5056649;28;20447;-53
2023/02/25 05:46:32;;;;;;;2.50;2.27;;;3.60;1.00;;;;;;5047012;28;20529;-53
2023/02/25 05:48:57;;;;;;;2.30;2.20;;;3.70;1.00;;;;;;5043716;28;20529;-53
2023/02/25 05:51:23;;;;;;;3.33;2.07;;;3.80;1.00;;;;;;5047643;28;20549;-55
2023/02/25 05:53:50;;;;;;;2.93;2.27;;;3.70;1.00;;;;;;5045207;28;20231;-53
2023/02/25 05:56:21;;;;;;;2.03;1.50;;;3.60;1.00;;;;;;5059071;28;20470;-54
2023/02/25 05:58:47;;;;;;;2.63;2.17;;;3.60;1.00;;;;;;5060773;28;20449;-55
2023/02/25 06:01:16;;;;;;;1.50;1.40;;;3.60;1.00;;;;;;5059741;28;20848;-52
2023/02/25 06:03:43;;;;;;;2.13;1.93;;;3.70;1.70;;;;;;5045500;28;20650;-52
2023/02/25 06:06:13;;;;;;;2.53;2.20;;;3.70;1.00;;;;;;5047485;28;20459;-56
2023/02/25 06:08:43;;;;;;;2.33;1.93;;;3.70;1.00;;;;;;5039992;28;20792;-54
2023/02/25 06:11:09;;;;;;;2.40;2.20;;;3.70;1.00;;;;;;5053127;28;20481;-53
2023/02/25 06:13:35;;;;;;;3.23;2.27;;;3.70;1.00;;;;;;5043650;28;20462;-52
2023/02/25 06:16:04;;;;;;;2.70;2.30;;;3.70;1.00;;;;;;5045271;28;20861;-54
2023/02/25 06:18:35;;;;;;;2.37;2.17;;;3.80;1.00;;;;;;5050319;28;20186;-53
2023/02/25 06:21:06;;;;;;;3.13;2.00;;;3.80;1.00;;;;;;5046084;28;20447;-54
2023/02/25 06:23:34;;;;;;;2.70;2.50;;;3.80;1.00;;;;;;5046407;28;20520;-53
2023/02/25 06:25:59;;;;;;;2.77;1.90;;;3.70;1.00;;;;;;5049132;28;20453;-53
2023/02/25 06:28:25;;;;;;;3.33;2.87;;;3.70;1.00;;;;;;5047994;28;20443;-55
2023/02/25 06:30:51;;;;;;;7.20;2.13;;;3.70;1.00;;;;;;5045983;28;20192;-56
2023/02/25 06:33:17;;;;;;;3.67;2.97;;;3.70;1.00;;;;;;5058478;28;20197;-54
2023/02/25 06:35:43;;;;;;;4.07;3.10;;;3.80;1.00;;;;;;5049124;28;20462;-55
2023/02/25 06:38:08;;;;;;;3.63;2.93;;;3.80;1.00;;;;;;5047231;28;20186;-53
2023/02/25 06:40:34;;;;;;;6.20;4.17;;;3.80;1.00;;;;;;5053114;28;20924;-55
2023/02/25 06:43:00;;;;;;;5.50;3.87;;;3.80;1.00;;;;;;5048508;28;20260;-54
2023/02/25 06:45:25;;;;;;;5.47;3.47;;;3.90;1.00;;;;;;5054771;28;20192;-55
2023/02/25 06:47:51;;;;;;;4.87;3.90;;;3.90;1.00;;;;;;5051543;28;20195;-53
2023/02/25 06:50:17;;;;;;;3.40;3.10;;;3.80;1.00;;;;;;5052281;28;20206;-52
2023/02/25 06:52:43;;;;;;;4.10;3.50;;;3.90;1.00;;;;;;5044560;28;20240;-55
2023/02/25 06:55:09;;;;;;;5.00;3.80;;;4.00;1.00;;;;;;5043975;28;20315;-56
2023/02/25 06:57:35;;;;;;;5.40;4.00;;;4.00;1.00;;;;;;5043758;28;20194;-55
2023/02/25 07:00:01;;;;;;;3.07;2.63;;;3.90;1.00;;;;;;5045130;28;20447;-54
2023/02/25 07:02:26;;;;;;;4.53;4.13;;;3.90;1.00;;;;;;5046425;28;20454;-55
2023/02/25 07:04:53;;;;;;;4.03;3.63;;;3.90;1.00;;;;;;5047501;28;20259;-55
2023/02/25 07:07:19;;;;;;;3.10;2.80;;;3.80;1.00;;;;;;5041327;28;20450;-55
2023/02/25 07:09:46;;;;;;;3.67;3.33;;;3.80;1.00;;;;;;5037821;28;20450;-55
2023/02/25 07:12:12;;;;;;;3.40;3.10;;;5.00;1.00;;;;;;5041021;28;20949;-55
2023/02/25 07:14:38;;;;;;;5.80;3.70;;;4.00;1.00;;;;;;5043410;28;20838;-55
2023/02/25 07:17:04;;;;;;;3.60;3.30;;;3.90;1.00;;;;;;5041636;28;20470;-56
2023/02/25 07:19:29;;;;;;;3.43;2.70;;;4.00;1.00;;;;;;5040583;28;20661;-54
2023/02/25 07:21:55;;;;;;;3.53;3.23;;;3.90;1.00;;;;;;5044335;28;20492;-54
2023/02/25 07:24:22;;;;;;;4.17;2.63;;;4.10;1.00;;;;;;5041675;28;20267;-57
2023/02/25 07:26:48;;;;;;;3.80;2.60;;;4.20;1.00;;;;;;5044878;28;20454;-55
2023/02/25 07:29:13;;;;;;;7.80;3.10;;;4.20;1.00;;;;;;5044920;28;20514;-54
2023/02/25 07:31:39;;;;;;;3.63;2.60;;;4.00;1.00;;;;;;5044046;28;20453;-58
2023/02/25 07:34:05;;;;;;;5.27;3.07;;;3.90;1.00;;;;;;5043919;28;20222;-56
2023/02/25 07:36:34;;;;;;;5.30;2.93;;;4.00;1.00;;;;;;5042797;28;20302;-56
2023/02/25 07:39:00;;;;;;;4.50;3.00;;;4.00;1.00;;;;;;5043176;28;20181;-55
2023/02/25 07:41:27;;;;;;;3.10;2.77;;;4.00;1.00;;;;;;5043694;28;20450;-56
2023/02/25 07:43:54;;;;;;;4.17;3.67;;;4.10;1.00;;;;;;5040590;28;22026;-54
2023/02/25 07:46:21;;;;;;;3.23;2.50;;;4.20;1.00;;;;;;5041829;28;20458;-55
2023/02/25 07:48:47;;;;;;;3.13;2.50;;;4.20;1.00;;;;;;5043833;28;20813;-54
2023/02/25 07:51:17;;;;;;;3.93;2.37;;;4.20;1.00;;;;;;5045653;28;20561;-54
2023/02/25 07:53:43;;;;;;;4.53;3.00;;;4.20;1.00;;;;;;5042474;28;20487;-55
2023/02/25 07:56:10;;;;;;;3.10;2.30;;;4.10;1.00;;;;;;5047940;28;20509;-53
2023/02/25 07:58:36;;;;;;;2.90;2.27;;;4.20;1.00;;;;;;5058872;28;20439;-54
2023/02/25 08:01:07;;;;;;;3.77;2.63;;;4.10;1.00;;;;;;5045459;28;20534;-56
2023/02/25 08:03:33;;;;;;;3.00;2.70;;;4.10;1.00;;;;;;5046848;28;20446;-56
2023/02/25 08:06:01;;;;;;;3.83;3.10;;;4.20;1.00;;;;;;5043053;28;20809;-57
2023/02/25 08:08:27;;;;;;;4.63;2.77;;;4.10;1.00;;;;;;5043836;28;20197;-54
2023/02/25 08:10:53;;;;;;;5.30;2.97;;;4.10;1.00;;;;;;5046856;28;20947;-54
2023/02/25 08:13:18;;;;;;;2.93;2.60;;;4.20;1.00;;;;;;5042297;28;20450;-55
2023/02/25 08:15:44;;;;;;;6.57;3.20;;;4.10;1.00;;;;;;5049144;28;20246;-55
2023/02/25 08:18:10;;;;;;;4.47;3.27;;;4.00;1.00;;;;;;5047855;28;20673;-55
2023/02/25 08:20:36;;;;;;;3.10;2.80;;;4.10;1.00;;;;;;5049562;28;20181;-54
2023/02/25 08:23:03;;;;;;;3.63;3.13;;;4.00;1.00;;;;;;5049352;28;20805;-54
2023/02/25 08:25:29;;;;;;;3.60;3.30;;;4.00;1.00;;;;;;5052548;28;20462;-57
2023/02/25 08:27:55;;;;;;;4.30;3.33;;;4.00;1.00;;;;;;5049235;28;20478;-56
2023/02/25 08:30:20;;;;;;;4.73;3.60;;;4.10;1.00;;;;;;5053070;28;20285;-55
2023/02/25 08:32:46;;;;;;;4.03;3.23;;;4.10;1.00;;;;;;5048466;28;20557;-55
2023/02/25 08:35:12;;;;;;;5.10;3.80;;;4.10;1.00;;;;;;5059217;28;20184;-54
2023/02/25 08:37:38;;;;;;;6.50;3.30;;;4.10;1.00;;;;;;5058820;28;20465;-55
2023/02/25 08:40:09;;;;;;;4.93;3.60;;;4.00;1.00;;;;;;5061594;28;20434;-55
2023/02/25 08:42:35;;;;;;;5.10;3.50;;;4.00;1.00;;;;;;5053862;28;20195;-54
2023/02/25 08:45:00;;;;;;;6.97;4.60;;;4.00;1.00;;;;;;5051759;28;20438;-55
2023/02/25 08:47:26;;;;;;;5.00;4.20;;;4.00;1.00;;;;;;5046350;28;20454;-55
2023/02/25 08:49:52;;;;;;;4.70;4.03;;;4.10;1.00;;;;;;5050101;28;20188;-56
2023/02/25 08:52:17;;;;;;;5.30;3.33;;;4.20;1.00;;;;;;5048998;28;20308;-55
2023/02/25 08:54:43;;;;;;;5.17;2.80;;;4.20;1.00;;;;;;5050268;28;20192;-54
2023/02/25 08:57:09;;;;;;;4.20;3.00;;;4.20;1.00;;;;;;5048401;28;20215;-56
2023/02/25 08:59:35;;;;;;;4.40;3.00;;;4.30;1.00;;;;;;5050327;28;22145;-56
2023/02/25 09:02:05;;;;;;;4.20;2.80;;;4.40;1.00;;;;;;5050279;28;20195;-55
2023/02/25 09:04:36;;;;;;;3.50;3.10;;;4.60;1.00;;;;;;5047867;28;20912;-55
2023/02/25 09:07:02;;;;;;;4.37;2.47;;;4.70;1.00;;;;;;5051371;28;20519;-56
2023/02/25 09:09:28;;;;;;;2.90;2.23;;;4.80;1.00;;;;;;5049103;28;20454;-56
2023/02/25 09:11:54;;;;;;;3.40;2.07;;;4.70;1.00;;;;;;5046999;28;20216;-55
2023/02/25 09:14:20;;;;;;;3.00;2.60;;;4.80;1.00;;;;;;5048784;28;20947;-56
2023/02/25 09:16:46;;;;;;;2.97;1.97;;;4.70;1.00;;;;;;5045254;28;20515;-54
2023/02/25 09:19:14;;;;;;;2.40;2.00;;;4.70;1.00;;;;;;5047526;28;20544;-55
2023/02/25 09:21:40;;;;;;;1.87;1.63;;;4.70;1.00;;;;;;5047677;28;20855;-54
2023/02/25 09:24:07;;;;;;;1.50;1.40;;;4.60;1.00;;;;;;5050687;28;20446;-57
2023/02/25 09:26:33;;;;;;;1.90;1.80;;;4.50;1.00;;;;;;5050075;28;20435;-56
2023/02/25 09:29:03;;;;;;;3.00;1.43;;;4.40;1.00;;;;;;5051070;28;20792;-56
2023/02/25 09:31:32;;;;;;;1.43;1.07;;;4.60;1.00;;;;;;5061852;28;20542;-56
2023/02/25 09:33:58;;;;;;;1.60;1.10;;;4.40;1.00;;;;;;5045338;28;20452;-55
2023/02/25 09:36:24;;;;;;;1.43;1.33;;;4.30;1.00;;;;;;5046657;28;20489;-56
2023/02/25 09:38:50;;;;;;;1.00;0.97;;;4.20;1.00;;;;;;5049023;28;20185;-55
2023/02/25 09:41:28;;;;;;;1.97;1.10;;;4.10;1.00;;;;;;5061984;28;20450;-55
2023/02/25 09:43:59;;;;;;;1.43;1.33;;;4.20;1.00;;;;;;5049053;28;20450;-55
2023/02/25 09:46:27;;;;;;;1.20;1.10;;;4.10;1.00;;;;;;5048778;28;20451;-56
2023/02/25 09:49:04;;;;;;;1.50;1.40;;;4.00;1.00;;;;;;5046368;28;20520;-54
2023/02/25 09:51:38;;;;;;;1.60;1.50;;;4.00;1.00;;;;;;5046706;28;20454;-56
2023/02/25 09:54:10;;;;;;;1.60;1.30;;;4.20;1.00;;;;;;5049003;28;20516;-55
2023/02/25 09:56:36;;;;;;;2.53;1.70;;;4.10;1.00;;;;;;5047082;28;20983;-54
2023/02/25 09:59:04;;;;;;;1.60;1.50;;;4.10;1.00;;;;;;5047005;28;20463;-57
2023/02/25 10:01:48;;;;;;;2.43;1.47;;;4.20;1.00;;;;;;5047307;28;20955;-57
2023/02/25 10:04:16;;;;;;;1.80;1.60;;;4.10;1.00;;;;;;5046636;28;20451;-55
2023/02/25 10:06:46;;;;;;;6.93;1.47;;;4.10;1.00;;;;;;5050296;28;20835;-55
2023/02/25 10:09:36;;;;;;;4.10;2.10;;;4.00;1.00;;;;;;5045502;28;20446;-54
2023/02/25 10:12:12;;;;;;;1.97;1.77;;;4.00;1.00;;;;;;5046153;28;20524;-55
2023/02/25 10:15:14;;;;;;;2.20;1.73;;;4.10;1.00;;;;;;5049719;28;20490;-55
2023/02/25 10:18:01;;;;;;;1.30;1.10;;;4.10;1.00;;;;;;5047821;28;20461;-57
2023/02/25 10:20:37;;;;;;;1.40;1.30;;;3.80;1.00;;;;;;5048106;28;20453;-56
2023/02/25 10:23:06;;;;;;;1.53;1.43;;;4.00;1.00;;;;;;5050069;28;20449;-57
2023/02/25 10:25:36;;;;;;;4.30;1.80;;;4.00;1.00;;;;;;5048501;28;20451;-56
2023/02/25 10:28:08;;;;;;;2.83;1.40;;;4.00;1.00;;;;;;5048586;28;20447;-56
2023/02/25 10:31:00;;;;;;;1.90;1.43;;;4.00;1.00;;;;;;5046695;28;20934;-56
2023/02/25 10:33:30;;;;;;;3.93;2.00;;;4.10;1.00;;;;;;5045654;28;20451;-55
2023/02/25 10:36:03;;;;;;;1.50;1.40;;;4.10;1.00;;;;;;5048010;28;20458;-55
2023/02/25 10:38:29;;;;;;;3.00;2.80;;;3.90;1.00;;;;;;5047617;28;20496;-56
2023/02/25 10:40:56;;;;;;;2.70;1.73;;;3.70;1.00;;;;;;5048049;28;20454;-55
2023/02/25 10:43:25;;;;;;;2.73;1.40;;;3.60;1.00;;;;;;5047337;28;20194;-56
2023/02/25 10:46:16;;;;;;;2.03;1.43;;;3.50;1.00;;;;;;5048535;28;20795;-56
2023/02/25 10:48:46;;;;;;;1.60;1.50;;;3.50;1.00;;;;;;5046369;28;20449;-55
2023/02/25 10:51:15;;;;;;;2.83;1.80;;;3.50;1.00;;;;;;5049096;28;20505;-54
2023/02/25 10:53:56;;;;;;;1.10;1.00;;;3.70;1.00;;;;;;5057515;28;20461;-56
2023/02/25 10:56:31;;;;;;;1.50;1.27;;;3.60;1.00;;;;;;5061647;28;20787;-56
2023/02/25 10:59:05;;;;;;;1.73;1.53;;;3.60;1.00;;;;;;5067092;28;20796;-56
2023/02/25 11:01:49;;;;;;;1.50;1.33;;;3.70;1.00;;;;;;5058394;28;20470;-55
2023/02/25 11:04:19;;;;;;;2.87;1.60;;;3.70;1.00;;;;;;5044593;28;20480;-55
2023/02/25 11:06:45;;;;;;;1.70;1.60;;;3.80;1.00;;;;;;5046318;28;20538;-55
2023/02/25 11:09:20;;;;;;;1.50;1.40;;;3.70;1.00;;;;;;5048257;28;20529;-55
2023/02/25 11:12:20;;;;;;;2.67;1.90;;;3.60;1.00;;;;;;5048468;28;20430;-55
2023/02/25 11:14:46;;;;;;;3.60;2.13;;;3.70;1.00;;;;;;5046670;28;20442;-55
2023/02/25 11:17:19;;;;;;;1.70;1.60;;;3.80;1.00;;;;;;5047133;28;20470;-55
2023/02/25 11:20:00;;;;;;;1.97;1.63;;;3.90;1.00;;;;;;5048576;28;20220;-56
2023/02/25 11:22:41;;;;;;;1.87;1.77;;;4.00;1.00;;;;;;5046759;28;20447;-56
2023/02/25 11:25:16;;;;;;;1.90;1.80;;;4.20;1.00;;;;;;5053128;28;20515;-55
2023/02/25 11:27:52;;;;;;;1.50;1.40;;;4.30;1.00;;;;;;5042957;28;20457;-55
2023/02/25 11:30:24;;;;;;;1.80;1.67;;;4.10;1.00;;;;;;5064050;28;20490;-55
2023/02/25 11:32:54;;;;;;;1.90;1.80;;;4.10;1.00;;;;;;5055004;28;21016;-54
2023/02/25 11:35:34;;;;;;;3.30;1.97;;;4.10;1.00;;;;;;5068593;28;20460;-55
2023/02/25 11:38:23;;;;;;;3.20;2.90;;;4.20;1.00;;;;;;5052189;28;20795;-55
2023/02/25 11:40:48;;;;;;;3.00;2.20;;;4.10;1.00;;;;;;5050710;28;20463;-55
2023/02/25 11:43:18;;;;;;;3.87;2.63;;;4.10;1.00;;;;;;5047327;28;20478;-56
2023/02/25 11:46:00;;;;;;;5.57;3.50;;;4.10;1.00;;;;;;5046447;28;20653;-55
2023/02/25 11:48:40;;;;;;;3.60;3.30;;;4.10;1.00;;;;;;5047417;28;20522;-56
2023/02/25 11:51:17;;;;;;;4.27;3.00;;;4.20;1.00;;;;;;5046750;28;20449;-55
2023/02/25 11:54:01;;;;;;;3.80;3.40;;;4.40;1.00;;;;;;5048530;28;20462;-57
2023/02/25 11:56:34;;;;;;;3.40;3.10;;;4.30;1.00;;;;;;5048173;28;20486;-54
2023/02/25 11:59:20;;;;;;;2.10;1.90;;;4.20;1.00;;;;;;5050975;28;20447;-55
2023/02/25 12:02:03;;;;;;;3.57;2.93;;;4.10;1.00;;;;;;5051695;28;20517;-55
2023/02/25 12:04:48;;;;;;;3.33;3.03;;;4.10;1.00;;;;;;5052211;28;20434;-55
2023/02/25 12:07:19;;;;;;;3.73;3.20;;;4.30;1.00;;;;;;5064734;28;20458;-55
2023/02/25 12:10:24;;;;;;;3.07;2.77;;;4.20;1.00;;;;;;5064241;28;20425;-54
2023/02/25 12:13:14;;;;;;;2.13;1.93;;;4.10;1.00;;;;;;5017833;28;20450;-56
2023/02/25 12:16:25;;;;;;;4.70;2.13;;;4.00;1.00;;;;;;5051831;28;20639;-55
2023/02/25 12:18:57;;;;;;;2.63;2.20;;;4.10;1.00;;;;;;5045890;28;20439;-57
2023/02/25 12:21:34;;;;;;;2.53;2.30;;;4.30;1.00;;;;;;5056691;28;20529;-56
2023/02/25 12:24:28;;;;;;;2.40;2.10;;;4.40;1.00;;;;;;5066482;28;20446;-57
2023/02/25 12:27:15;;;;;;;2.47;2.03;;;4.20;1.00;;;;;;5065380;28;20473;-57
2023/02/25 12:30:05;;;;;;;2.10;1.90;;;4.20;1.00;;;;;;5056910;28;20964;-57
2023/02/25 12:32:52;;;;;;;2.67;2.40;;;4.20;1.00;;;;;;5056729;28;20778;-56
2023/02/25 12:36:02;;;;;;;7.90;2.87;;;4.30;1.00;;;;;;5047047;28;20454;-56
2023/02/25 12:38:52;;;;;;;3.10;2.10;;;4.30;1.00;;;;;;5004842;28;20447;-55
2023/02/25 12:41:20;;;;;;;1.83;1.73;;;4.20;1.00;;;;;;5063487;28;20453;-56
2023/02/25 12:44:14;;;;;;;4.27;2.13;;;4.30;1.00;;;;;;5059798;28;20472;-56
2023/02/25 12:47:12;;;;;;;2.57;2.20;;;4.40;1.00;;;;;;5060441;28;20450;-56
2023/02/25 12:49:59;;;;;;;2.20;1.77;;;4.20;1.00;;;;;;5052668;28;20465;-56
2023/02/25 12:52:49;;;;;;;2.90;2.40;;;4.00;1.00;;;;;;5051077;28;20519;-55
2023/02/25 12:55:51;;;;;;;5.60;2.13;;;4.00;1.00;;;;;;5050826;28;20427;-56
2023/02/25 12:58:29;;;;;;;1.90;1.70;;;4.10;1.00;;;;;;5048129;28;20442;-55
2023/02/25 13:01:28;;;;;;;1.97;1.77;;;4.20;1.00;;;;;;5048490;28;20912;-53
2023/02/25 13:03:57;;;;;;;3.33;2.17;;;4.20;1.00;;;;;;5050655;28;22385;-55
2023/02/25 13:06:47;;;;;;;2.80;2.40;;;4.20;1.00;;;;;;5054020;28;20789;-53
2023/02/25 13:09:31;;;;;;;1.90;1.67;;;4.30;1.00;;;;;;5050487;28;20481;-55
2023/02/25 13:12:39;;;;;;;2.03;1.83;;;4.30;1.00;;;;;;5049471;28;20990;-54
2023/02/25 13:15:15;;;;;;;2.20;1.53;;;4.30;1.00;;;;;;5026332;28;20789;-55
2023/02/25 13:18:08;;;;;;;2.13;1.93;;;4.20;1.00;;;;;;5031298;28;20455;-54
2023/02/25 13:21:01;;;;;;;1.67;1.57;;;4.40;1.00;;;;;;5027822;28;20604;-53
2023/02/25 13:23:37;;;;;;;3.40;2.40;;;4.30;1.00;;;;;;5040437;28;20443;-55
2023/02/25 13:26:19;;;;;;;2.53;2.27;;;4.00;1.00;;;;;;5034091;28;20529;-55
2023/02/25 13:29:09;;;;;;;2.60;2.37;;;4.10;1.00;;;;;;5048874;28;20446;-54
2023/02/25 13:31:41;;;;;;;2.37;2.17;;;4.20;1.00;;;;;;5041472;28;20435;-55